sensor_id;sensor_type;location;lat;lon;timestamp;P1;durP1;ratioP1;P2;durP2;ratioP2
24891;SDS011;12954;50.688;10.908;2022-12-20T00:01:53;15.50;;;11.65;;
24891;SDS011;12954;50.688;10.908;2022-12-20T00:04:21;18.25;;;11.68;;
24891;SDS011;12954;50.688;10.908;2022-12-20T00:06:51;14.93;;;10.10;;
24891;SDS011;12954;50.688;10.908;2022-12-20T00:09:20;13.55;;;11.75;;
24891;SDS011;12954;50.688;10.908;2022-12-20T00:11:50;15.50;;;9.93;;
24891;SDS011;12954;50.688;10.908;2022-12-20T00:14:19;14.20;;;10.05;;
24891;SDS011;12954;50.688;10.908;2022-12-20T00:16:47;13.93;;;9.80;;
24891;SDS011;12954;50.688;10.908;2022-12-20T00:19:16;13.43;;;9.80;;
24891;SDS011;12954;50.688;10.908;2022-12-20T00:21:44;14.55;;;10.77;;
24891;SDS011;12954;50.688;10.908;2022-12-20T00:24:14;14.48;;;12.75;;
24891;SDS011;12954;50.688;10.908;2022-12-20T00:26:51;15.40;;;13.07;;
24891;SDS011;12954;50.688;10.908;2022-12-20T00:29:19;14.05;;;10.40;;
24891;SDS011;12954;50.688;10.908;2022-12-20T00:31:48;14.50;;;10.13;;
24891;SDS011;12954;50.688;10.908;2022-12-20T00:34:16;12.80;;;11.43;;
24891;SDS011;12954;50.688;10.908;2022-12-20T00:36:44;15.43;;;11.60;;
24891;SDS011;12954;50.688;10.908;2022-12-20T00:39:14;15.88;;;11.15;;
24891;SDS011;12954;50.688;10.908;2022-12-20T00:41:43;14.52;;;11.75;;
24891;SDS011;12954;50.688;10.908;2022-12-20T00:44:11;15.68;;;12.15;;
24891;SDS011;12954;50.688;10.908;2022-12-20T00:46:39;12.95;;;10.13;;
24891;SDS011;12954;50.688;10.908;2022-12-20T00:49:08;13.30;;;12.00;;
24891;SDS011;12954;50.688;10.908;2022-12-20T00:51:36;13.32;;;10.73;;
24891;SDS011;12954;50.688;10.908;2022-12-20T00:54:04;13.98;;;10.57;;
24891;SDS011;12954;50.688;10.908;2022-12-20T00:56:34;13.43;;;10.18;;
24891;SDS011;12954;50.688;10.908;2022-12-20T00:59:03;15.18;;;10.95;;
24891;SDS011;12954;50.688;10.908;2022-12-20T01:01:31;14.30;;;12.43;;
24891;SDS011;12954;50.688;10.908;2022-12-20T01:04:01;13.93;;;10.82;;
24891;SDS011;12954;50.688;10.908;2022-12-20T01:06:30;13.88;;;12.48;;
24891;SDS011;12954;50.688;10.908;2022-12-20T01:08:58;15.20;;;11.77;;
24891;SDS011;12954;50.688;10.908;2022-12-20T01:11:27;14.43;;;11.77;;
24891;SDS011;12954;50.688;10.908;2022-12-20T01:14:01;16.27;;;12.85;;
24891;SDS011;12954;50.688;10.908;2022-12-20T01:16:32;16.75;;;13.35;;
24891;SDS011;12954;50.688;10.908;2022-12-20T01:19:03;15.25;;;11.82;;
24891;SDS011;12954;50.688;10.908;2022-12-20T01:21:33;14.00;;;12.30;;
24891;SDS011;12954;50.688;10.908;2022-12-20T01:24:01;15.73;;;13.38;;
24891;SDS011;12954;50.688;10.908;2022-12-20T01:26:31;15.40;;;13.35;;
24891;SDS011;12954;50.688;10.908;2022-12-20T01:29:00;17.33;;;12.23;;
24891;SDS011;12954;50.688;10.908;2022-12-20T01:31:29;13.75;;;12.25;;
24891;SDS011;12954;50.688;10.908;2022-12-20T01:33:58;16.00;;;13.93;;
24891;SDS011;12954;50.688;10.908;2022-12-20T01:36:27;14.88;;;11.50;;
24891;SDS011;12954;50.688;10.908;2022-12-20T01:38:56;16.10;;;12.40;;
24891;SDS011;12954;50.688;10.908;2022-12-20T01:41:28;15.40;;;12.52;;
24891;SDS011;12954;50.688;10.908;2022-12-20T01:43:58;15.77;;;12.48;;
24891;SDS011;12954;50.688;10.908;2022-12-20T01:46:30;15.23;;;13.57;;
24891;SDS011;12954;50.688;10.908;2022-12-20T01:49:00;16.70;;;11.75;;
24891;SDS011;12954;50.688;10.908;2022-12-20T01:51:33;15.52;;;12.93;;
24891;SDS011;12954;50.688;10.908;2022-12-20T01:54:06;16.88;;;13.35;;
24891;SDS011;12954;50.688;10.908;2022-12-20T01:56:39;17.92;;;12.25;;
24891;SDS011;12954;50.688;10.908;2022-12-20T01:59:10;15.90;;;12.07;;
24891;SDS011;12954;50.688;10.908;2022-12-20T02:01:41;17.13;;;12.07;;
24891;SDS011;12954;50.688;10.908;2022-12-20T02:04:11;17.48;;;12.40;;
24891;SDS011;12954;50.688;10.908;2022-12-20T02:06:39;18.75;;;13.25;;
24891;SDS011;12954;50.688;10.908;2022-12-20T02:09:08;18.00;;;14.05;;
24891;SDS011;12954;50.688;10.908;2022-12-20T02:11:41;17.52;;;13.40;;
24891;SDS011;12954;50.688;10.908;2022-12-20T02:14:28;17.60;;;12.32;;
24891;SDS011;12954;50.688;10.908;2022-12-20T02:17:27;17.63;;;13.02;;
24891;SDS011;12954;50.688;10.908;2022-12-20T02:23:10;17.92;;;12.70;;
24891;SDS011;12954;50.688;10.908;2022-12-20T02:25:57;15.23;;;12.20;;
24891;SDS011;12954;50.688;10.908;2022-12-20T02:28:41;16.73;;;11.32;;
24891;SDS011;12954;50.688;10.908;2022-12-20T02:31:26;16.38;;;12.48;;
24891;SDS011;12954;50.688;10.908;2022-12-20T02:33:58;14.32;;;11.77;;
24891;SDS011;12954;50.688;10.908;2022-12-20T02:36:29;13.63;;;11.50;;
24891;SDS011;12954;50.688;10.908;2022-12-20T02:38:58;13.77;;;11.10;;
24891;SDS011;12954;50.688;10.908;2022-12-20T02:41:29;14.05;;;10.43;;
24891;SDS011;12954;50.688;10.908;2022-12-20T02:44:03;13.48;;;12.18;;
24891;SDS011;12954;50.688;10.908;2022-12-20T02:46:55;12.68;;;10.50;;
24891;SDS011;12954;50.688;10.908;2022-12-20T02:49:28;13.35;;;11.30;;
24891;SDS011;12954;50.688;10.908;2022-12-20T02:51:59;13.70;;;8.93;;
24891;SDS011;12954;50.688;10.908;2022-12-20T02:54:29;13.77;;;11.23;;
24891;SDS011;12954;50.688;10.908;2022-12-20T02:56:59;11.77;;;10.27;;
24891;SDS011;12954;50.688;10.908;2022-12-20T02:59:33;13.43;;;9.75;;
24891;SDS011;12954;50.688;10.908;2022-12-20T03:02:09;15.57;;;9.93;;
24891;SDS011;12954;50.688;10.908;2022-12-20T03:04:38;12.75;;;11.10;;
24891;SDS011;12954;50.688;10.908;2022-12-20T03:07:08;12.63;;;11.18;;
24891;SDS011;12954;50.688;10.908;2022-12-20T03:09:38;10.80;;;9.70;;
24891;SDS011;12954;50.688;10.908;2022-12-20T03:12:08;13.38;;;9.48;;
24891;SDS011;12954;50.688;10.908;2022-12-20T03:14:41;12.57;;;10.07;;
24891;SDS011;12954;50.688;10.908;2022-12-20T03:17:11;13.30;;;10.27;;
24891;SDS011;12954;50.688;10.908;2022-12-20T03:19:40;13.75;;;8.43;;
24891;SDS011;12954;50.688;10.908;2022-12-20T03:22:08;13.15;;;9.75;;
24891;SDS011;12954;50.688;10.908;2022-12-20T03:24:37;10.95;;;7.75;;
24891;SDS011;12954;50.688;10.908;2022-12-20T03:27:05;10.63;;;8.63;;
24891;SDS011;12954;50.688;10.908;2022-12-20T03:29:34;9.88;;;8.88;;
24891;SDS011;12954;50.688;10.908;2022-12-20T03:32:02;10.50;;;8.77;;
24891;SDS011;12954;50.688;10.908;2022-12-20T03:34:32;11.98;;;9.07;;
24891;SDS011;12954;50.688;10.908;2022-12-20T03:37:01;10.85;;;7.22;;
24891;SDS011;12954;50.688;10.908;2022-12-20T03:39:29;11.10;;;8.82;;
24891;SDS011;12954;50.688;10.908;2022-12-20T03:41:57;10.77;;;9.35;;
24891;SDS011;12954;50.688;10.908;2022-12-20T03:44:26;12.60;;;9.23;;
24891;SDS011;12954;50.688;10.908;2022-12-20T03:46:54;12.25;;;10.48;;
24891;SDS011;12954;50.688;10.908;2022-12-20T03:49:22;14.27;;;8.65;;
24891;SDS011;12954;50.688;10.908;2022-12-20T03:51:52;10.88;;;9.10;;
24891;SDS011;12954;50.688;10.908;2022-12-20T03:54:21;12.68;;;9.48;;
24891;SDS011;12954;50.688;10.908;2022-12-20T03:56:49;11.20;;;9.80;;
24891;SDS011;12954;50.688;10.908;2022-12-20T03:59:17;13.43;;;9.85;;
24891;SDS011;12954;50.688;10.908;2022-12-20T04:01:46;12.85;;;10.07;;
24891;SDS011;12954;50.688;10.908;2022-12-20T04:04:14;13.20;;;9.73;;
24891;SDS011;12954;50.688;10.908;2022-12-20T04:06:43;9.88;;;8.25;;
24891;SDS011;12954;50.688;10.908;2022-12-20T04:09:13;9.18;;;8.18;;
24891;SDS011;12954;50.688;10.908;2022-12-20T04:11:41;10.48;;;7.70;;
24891;SDS011;12954;50.688;10.908;2022-12-20T04:14:09;9.45;;;7.72;;
24891;SDS011;12954;50.688;10.908;2022-12-20T04:16:38;10.63;;;7.60;;
24891;SDS011;12954;50.688;10.908;2022-12-20T04:19:06;9.07;;;7.18;;
24891;SDS011;12954;50.688;10.908;2022-12-20T04:21:35;8.35;;;6.82;;
24891;SDS011;12954;50.688;10.908;2022-12-20T04:24:03;10.02;;;6.85;;
24891;SDS011;12954;50.688;10.908;2022-12-20T04:26:34;9.05;;;5.05;;
24891;SDS011;12954;50.688;10.908;2022-12-20T04:29:02;7.38;;;5.68;;
24891;SDS011;12954;50.688;10.908;2022-12-20T04:31:31;6.88;;;5.20;;
24891;SDS011;12954;50.688;10.908;2022-12-20T04:34:00;7.35;;;5.35;;
24891;SDS011;12954;50.688;10.908;2022-12-20T04:36:28;7.65;;;5.35;;
24891;SDS011;12954;50.688;10.908;2022-12-20T04:38:56;8.63;;;5.85;;
24891;SDS011;12954;50.688;10.908;2022-12-20T04:41:25;7.68;;;6.35;;
24891;SDS011;12954;50.688;10.908;2022-12-20T04:43:55;7.18;;;6.43;;
24891;SDS011;12954;50.688;10.908;2022-12-20T04:46:25;7.35;;;6.05;;
24891;SDS011;12954;50.688;10.908;2022-12-20T04:48:54;9.00;;;7.43;;
24891;SDS011;12954;50.688;10.908;2022-12-20T04:51:25;8.05;;;6.45;;
24891;SDS011;12954;50.688;10.908;2022-12-20T04:53:54;8.18;;;6.60;;
24891;SDS011;12954;50.688;10.908;2022-12-20T04:56:23;7.40;;;5.72;;
24891;SDS011;12954;50.688;10.908;2022-12-20T04:58:55;8.27;;;6.30;;
24891;SDS011;12954;50.688;10.908;2022-12-20T05:01:25;5.80;;;5.13;;
24891;SDS011;12954;50.688;10.908;2022-12-20T05:03:54;9.52;;;5.72;;
24891;SDS011;12954;50.688;10.908;2022-12-20T05:06:22;7.38;;;5.53;;
24891;SDS011;12954;50.688;10.908;2022-12-20T05:08:51;8.38;;;5.90;;
24891;SDS011;12954;50.688;10.908;2022-12-20T05:11:20;6.35;;;5.40;;
24891;SDS011;12954;50.688;10.908;2022-12-20T05:13:49;6.68;;;4.88;;
24891;SDS011;12954;50.688;10.908;2022-12-20T05:16:19;5.43;;;4.72;;
24891;SDS011;12954;50.688;10.908;2022-12-20T05:18:47;5.72;;;4.13;;
24891;SDS011;12954;50.688;10.908;2022-12-20T05:21:15;6.35;;;4.60;;
24891;SDS011;12954;50.688;10.908;2022-12-20T05:24:01;5.22;;;4.20;;
24891;SDS011;12954;50.688;10.908;2022-12-20T05:26:47;5.03;;;3.65;;
24891;SDS011;12954;50.688;10.908;2022-12-20T05:29:15;4.78;;;4.25;;
24891;SDS011;12954;50.688;10.908;2022-12-20T05:31:45;7.15;;;4.18;;
24891;SDS011;12954;50.688;10.908;2022-12-20T05:34:14;6.40;;;3.95;;
24891;SDS011;12954;50.688;10.908;2022-12-20T05:36:42;7.60;;;4.93;;
24891;SDS011;12954;50.688;10.908;2022-12-20T05:39:11;5.60;;;3.63;;
24891;SDS011;12954;50.688;10.908;2022-12-20T05:41:39;5.32;;;4.15;;
24891;SDS011;12954;50.688;10.908;2022-12-20T05:44:08;6.22;;;4.57;;
24891;SDS011;12954;50.688;10.908;2022-12-20T05:46:36;5.50;;;4.05;;
24891;SDS011;12954;50.688;10.908;2022-12-20T05:49:06;5.00;;;4.10;;
24891;SDS011;12954;50.688;10.908;2022-12-20T05:51:34;5.50;;;4.50;;
24891;SDS011;12954;50.688;10.908;2022-12-20T05:54:03;7.60;;;4.80;;
24891;SDS011;12954;50.688;10.908;2022-12-20T05:56:31;6.15;;;4.93;;
24891;SDS011;12954;50.688;10.908;2022-12-20T05:59:00;5.35;;;4.25;;
24891;SDS011;12954;50.688;10.908;2022-12-20T06:01:28;5.53;;;4.13;;
24891;SDS011;12954;50.688;10.908;2022-12-20T06:03:57;5.72;;;4.65;;
24891;SDS011;12954;50.688;10.908;2022-12-20T06:06:27;7.63;;;4.30;;
24891;SDS011;12954;50.688;10.908;2022-12-20T06:08:55;7.18;;;5.60;;
24891;SDS011;12954;50.688;10.908;2022-12-20T06:11:24;7.70;;;6.90;;
24891;SDS011;12954;50.688;10.908;2022-12-20T06:13:55;7.72;;;6.93;;
24891;SDS011;12954;50.688;10.908;2022-12-20T06:16:24;7.60;;;6.60;;
24891;SDS011;12954;50.688;10.908;2022-12-20T06:18:53;7.72;;;5.60;;
24891;SDS011;12954;50.688;10.908;2022-12-20T06:21:21;7.18;;;6.28;;
24891;SDS011;12954;50.688;10.908;2022-12-20T06:23:51;7.20;;;6.45;;
24891;SDS011;12954;50.688;10.908;2022-12-20T06:26:20;6.47;;;4.70;;
24891;SDS011;12954;50.688;10.908;2022-12-20T06:28:49;6.53;;;5.55;;
24891;SDS011;12954;50.688;10.908;2022-12-20T06:31:20;6.43;;;5.55;;
24891;SDS011;12954;50.688;10.908;2022-12-20T06:33:49;4.80;;;4.32;;
24891;SDS011;12954;50.688;10.908;2022-12-20T06:36:17;5.30;;;4.55;;
24891;SDS011;12954;50.688;10.908;2022-12-20T06:38:46;5.25;;;4.13;;
24891;SDS011;12954;50.688;10.908;2022-12-20T06:41:15;4.85;;;3.95;;
24891;SDS011;12954;50.688;10.908;2022-12-20T06:43:44;5.65;;;3.80;;
24891;SDS011;12954;50.688;10.908;2022-12-20T06:46:12;5.13;;;3.13;;
24891;SDS011;12954;50.688;10.908;2022-12-20T06:48:41;3.15;;;2.42;;
24891;SDS011;12954;50.688;10.908;2022-12-20T06:51:09;5.05;;;2.35;;
24891;SDS011;12954;50.688;10.908;2022-12-20T06:53:37;3.10;;;2.20;;
24891;SDS011;12954;50.688;10.908;2022-12-20T06:56:06;3.80;;;2.50;;
24891;SDS011;12954;50.688;10.908;2022-12-20T06:58:36;3.63;;;2.67;;
24891;SDS011;12954;50.688;10.908;2022-12-20T07:01:04;2.80;;;2.20;;
24891;SDS011;12954;50.688;10.908;2022-12-20T07:03:33;4.68;;;2.03;;
24891;SDS011;12954;50.688;10.908;2022-12-20T07:06:01;3.08;;;1.67;;
24891;SDS011;12954;50.688;10.908;2022-12-20T07:08:30;2.10;;;1.80;;
24891;SDS011;12954;50.688;10.908;2022-12-20T07:11:02;2.92;;;1.70;;
24891;SDS011;12954;50.688;10.908;2022-12-20T07:16:02;3.20;;;2.20;;
24891;SDS011;12954;50.688;10.908;2022-12-20T07:18:31;3.75;;;2.25;;
24891;SDS011;12954;50.688;10.908;2022-12-20T07:21:01;3.05;;;2.03;;
24891;SDS011;12954;50.688;10.908;2022-12-20T07:23:31;4.53;;;1.98;;
24891;SDS011;12954;50.688;10.908;2022-12-20T07:26:00;2.38;;;2.03;;
24891;SDS011;12954;50.688;10.908;2022-12-20T07:28:29;4.57;;;2.00;;
24891;SDS011;12954;50.688;10.908;2022-12-20T07:30:59;3.72;;;2.28;;
24891;SDS011;12954;50.688;10.908;2022-12-20T07:33:29;3.85;;;2.70;;
24891;SDS011;12954;50.688;10.908;2022-12-20T07:35:59;3.28;;;2.45;;
24891;SDS011;12954;50.688;10.908;2022-12-20T07:38:28;3.65;;;2.70;;
24891;SDS011;12954;50.688;10.908;2022-12-20T07:40:57;3.95;;;2.55;;
24891;SDS011;12954;50.688;10.908;2022-12-20T07:43:26;5.05;;;2.92;;
24891;SDS011;12954;50.688;10.908;2022-12-20T07:45:55;3.42;;;2.25;;
24891;SDS011;12954;50.688;10.908;2022-12-20T07:48:23;3.90;;;2.45;;
24891;SDS011;12954;50.688;10.908;2022-12-20T07:50:54;3.78;;;2.00;;
24891;SDS011;12954;50.688;10.908;2022-12-20T07:53:27;3.22;;;2.55;;
24891;SDS011;12954;50.688;10.908;2022-12-20T07:55:58;3.85;;;2.60;;
24891;SDS011;12954;50.688;10.908;2022-12-20T07:58:28;3.60;;;2.17;;
24891;SDS011;12954;50.688;10.908;2022-12-20T08:00:57;5.00;;;2.97;;
24891;SDS011;12954;50.688;10.908;2022-12-20T08:03:26;4.10;;;2.95;;
24891;SDS011;12954;50.688;10.908;2022-12-20T08:06:01;3.60;;;2.83;;
24891;SDS011;12954;50.688;10.908;2022-12-20T08:08:31;3.80;;;2.70;;
24891;SDS011;12954;50.688;10.908;2022-12-20T08:11:03;4.07;;;3.05;;
24891;SDS011;12954;50.688;10.908;2022-12-20T08:13:33;3.33;;;3.03;;
24891;SDS011;12954;50.688;10.908;2022-12-20T08:16:11;4.07;;;2.65;;
24891;SDS011;12954;50.688;10.908;2022-12-20T08:18:39;4.93;;;2.60;;
24891;SDS011;12954;50.688;10.908;2022-12-20T08:21:09;4.70;;;3.28;;
24891;SDS011;12954;50.688;10.908;2022-12-20T08:23:40;3.20;;;2.70;;
24891;SDS011;12954;50.688;10.908;2022-12-20T08:26:08;4.43;;;3.25;;
24891;SDS011;12954;50.688;10.908;2022-12-20T08:28:37;4.68;;;2.60;;
24891;SDS011;12954;50.688;10.908;2022-12-20T08:31:06;3.60;;;2.80;;
24891;SDS011;12954;50.688;10.908;2022-12-20T08:33:36;4.00;;;3.08;;
24891;SDS011;12954;50.688;10.908;2022-12-20T08:36:06;5.80;;;3.72;;
24891;SDS011;12954;50.688;10.908;2022-12-20T08:38:37;5.38;;;3.67;;
24891;SDS011;12954;50.688;10.908;2022-12-20T08:41:07;5.57;;;3.45;;
24891;SDS011;12954;50.688;10.908;2022-12-20T08:43:36;6.03;;;5.43;;
24891;SDS011;12954;50.688;10.908;2022-12-20T08:46:06;6.57;;;4.55;;
24891;SDS011;12954;50.688;10.908;2022-12-20T08:48:36;7.20;;;5.97;;
24891;SDS011;12954;50.688;10.908;2022-12-20T08:51:05;6.13;;;5.07;;
24891;SDS011;12954;50.688;10.908;2022-12-20T08:53:37;7.88;;;5.85;;
24891;SDS011;12954;50.688;10.908;2022-12-20T08:56:06;6.75;;;4.80;;
24891;SDS011;12954;50.688;10.908;2022-12-20T08:58:36;8.18;;;7.10;;
24891;SDS011;12954;50.688;10.908;2022-12-20T09:01:06;8.00;;;7.03;;
24891;SDS011;12954;50.688;10.908;2022-12-20T09:03:36;8.75;;;7.85;;
24891;SDS011;12954;50.688;10.908;2022-12-20T09:06:06;8.77;;;7.28;;
24891;SDS011;12954;50.688;10.908;2022-12-20T09:08:38;9.85;;;7.68;;
24891;SDS011;12954;50.688;10.908;2022-12-20T09:11:08;10.18;;;8.02;;
24891;SDS011;12954;50.688;10.908;2022-12-20T09:13:38;10.38;;;8.70;;
24891;SDS011;12954;50.688;10.908;2022-12-20T09:16:10;11.48;;;9.02;;
24891;SDS011;12954;50.688;10.908;2022-12-20T09:18:40;11.98;;;9.05;;
24891;SDS011;12954;50.688;10.908;2022-12-20T09:21:09;10.02;;;8.20;;
24891;SDS011;12954;50.688;10.908;2022-12-20T09:23:40;12.43;;;10.15;;
24891;SDS011;12954;50.688;10.908;2022-12-20T09:26:09;12.00;;;8.35;;
24891;SDS011;12954;50.688;10.908;2022-12-20T09:28:39;11.30;;;8.88;;
24891;SDS011;12954;50.688;10.908;2022-12-20T09:31:09;10.77;;;8.57;;
24891;SDS011;12954;50.688;10.908;2022-12-20T09:33:39;8.82;;;6.35;;
24891;SDS011;12954;50.688;10.908;2022-12-20T09:36:09;6.95;;;5.65;;
24891;SDS011;12954;50.688;10.908;2022-12-20T09:38:40;7.43;;;5.57;;
24891;SDS011;12954;50.688;10.908;2022-12-20T09:41:23;6.18;;;5.20;;
24891;SDS011;12954;50.688;10.908;2022-12-20T09:43:56;6.78;;;5.13;;
24891;SDS011;12954;50.688;10.908;2022-12-20T09:46:25;5.32;;;4.25;;
24891;SDS011;12954;50.688;10.908;2022-12-20T09:48:55;8.93;;;5.82;;
24891;SDS011;12954;50.688;10.908;2022-12-20T09:54:21;7.30;;;5.30;;
24891;SDS011;12954;50.688;10.908;2022-12-20T09:56:57;5.95;;;4.60;;
24891;SDS011;12954;50.688;10.908;2022-12-20T09:59:32;7.10;;;4.25;;
24891;SDS011;12954;50.688;10.908;2022-12-20T10:02:08;6.28;;;4.93;;
24891;SDS011;12954;50.688;10.908;2022-12-20T10:04:58;6.10;;;4.30;;
24891;SDS011;12954;50.688;10.908;2022-12-20T10:07:31;7.60;;;5.38;;
24891;SDS011;12954;50.688;10.908;2022-12-20T10:10:21;7.55;;;5.93;;
24891;SDS011;12954;50.688;10.908;2022-12-20T10:13:05;7.40;;;4.80;;
24891;SDS011;12954;50.688;10.908;2022-12-20T10:15:46;5.22;;;4.20;;
24891;SDS011;12954;50.688;10.908;2022-12-20T10:18:30;5.65;;;4.25;;
24891;SDS011;12954;50.688;10.908;2022-12-20T10:21:10;7.30;;;5.50;;
24891;SDS011;12954;50.688;10.908;2022-12-20T10:23:49;7.70;;;5.85;;
24891;SDS011;12954;50.688;10.908;2022-12-20T10:26:28;7.72;;;6.32;;
24891;SDS011;12954;50.688;10.908;2022-12-20T10:28:57;7.95;;;5.78;;
24891;SDS011;12954;50.688;10.908;2022-12-20T10:31:25;7.38;;;5.72;;
24891;SDS011;12954;50.688;10.908;2022-12-20T10:33:54;8.80;;;5.18;;
24891;SDS011;12954;50.688;10.908;2022-12-20T10:36:23;7.00;;;5.60;;
24891;SDS011;12954;50.688;10.908;2022-12-20T10:38:53;7.07;;;5.38;;
24891;SDS011;12954;50.688;10.908;2022-12-20T10:41:24;6.72;;;6.03;;
24891;SDS011;12954;50.688;10.908;2022-12-20T10:43:57;8.88;;;6.82;;
24891;SDS011;12954;50.688;10.908;2022-12-20T10:46:33;6.60;;;5.43;;
24891;SDS011;12954;50.688;10.908;2022-12-20T10:49:21;8.43;;;6.20;;
24891;SDS011;12954;50.688;10.908;2022-12-20T10:51:57;6.47;;;5.65;;
24891;SDS011;12954;50.688;10.908;2022-12-20T10:54:31;7.90;;;5.60;;
24891;SDS011;12954;50.688;10.908;2022-12-20T10:57:02;6.28;;;5.43;;
24891;SDS011;12954;50.688;10.908;2022-12-20T10:59:45;7.10;;;4.65;;
24891;SDS011;12954;50.688;10.908;2022-12-20T11:02:24;6.68;;;5.50;;
24891;SDS011;12954;50.688;10.908;2022-12-20T11:05:15;5.65;;;4.20;;
24891;SDS011;12954;50.688;10.908;2022-12-20T11:07:51;6.05;;;4.45;;
24891;SDS011;12954;50.688;10.908;2022-12-20T11:10:41;8.48;;;5.47;;
24891;SDS011;12954;50.688;10.908;2022-12-20T11:13:18;5.93;;;3.92;;
24891;SDS011;12954;50.688;10.908;2022-12-20T11:15:50;7.20;;;4.63;;
24891;SDS011;12954;50.688;10.908;2022-12-20T11:18:27;5.95;;;4.68;;
24891;SDS011;12954;50.688;10.908;2022-12-20T11:21:09;6.78;;;4.28;;
24891;SDS011;12954;50.688;10.908;2022-12-20T11:23:54;5.70;;;4.82;;
24891;SDS011;12954;50.688;10.908;2022-12-20T11:26:34;6.70;;;4.45;;
24891;SDS011;12954;50.688;10.908;2022-12-20T11:29:20;6.75;;;4.05;;
24891;SDS011;12954;50.688;10.908;2022-12-20T11:32:06;6.30;;;4.53;;
24891;SDS011;12954;50.688;10.908;2022-12-20T11:34:45;5.50;;;3.85;;
24891;SDS011;12954;50.688;10.908;2022-12-20T11:37:20;4.80;;;3.80;;
24891;SDS011;12954;50.688;10.908;2022-12-20T11:39:57;4.30;;;3.60;;
24891;SDS011;12954;50.688;10.908;2022-12-20T11:42:41;6.45;;;5.03;;
24891;SDS011;12954;50.688;10.908;2022-12-20T11:45:22;6.93;;;4.93;;
24891;SDS011;12954;50.688;10.908;2022-12-20T11:48:00;7.78;;;5.30;;
24891;SDS011;12954;50.688;10.908;2022-12-20T11:50:52;6.85;;;4.55;;
24891;SDS011;12954;50.688;10.908;2022-12-20T11:53:31;6.38;;;4.90;;
24891;SDS011;12954;50.688;10.908;2022-12-20T11:56:05;9.10;;;5.75;;
24891;SDS011;12954;50.688;10.908;2022-12-20T11:58:43;6.28;;;4.43;;
24891;SDS011;12954;50.688;10.908;2022-12-20T12:01:19;6.22;;;4.25;;
24891;SDS011;12954;50.688;10.908;2022-12-20T12:03:56;6.25;;;4.20;;
24891;SDS011;12954;50.688;10.908;2022-12-20T12:06:31;7.22;;;5.00;;
24891;SDS011;12954;50.688;10.908;2022-12-20T12:09:05;7.13;;;4.85;;
24891;SDS011;12954;50.688;10.908;2022-12-20T12:11:43;5.38;;;3.78;;
24891;SDS011;12954;50.688;10.908;2022-12-20T12:14:37;4.30;;;3.40;;
24891;SDS011;12954;50.688;10.908;2022-12-20T12:17:17;6.10;;;4.80;;
24891;SDS011;12954;50.688;10.908;2022-12-20T12:19:55;5.47;;;3.58;;
24891;SDS011;12954;50.688;10.908;2022-12-20T12:22:35;6.80;;;3.22;;
24891;SDS011;12954;50.688;10.908;2022-12-20T12:25:08;4.30;;;3.20;;
24891;SDS011;12954;50.688;10.908;2022-12-20T12:27:40;4.47;;;3.40;;
24891;SDS011;12954;50.688;10.908;2022-12-20T12:30:11;4.85;;;3.13;;
24891;SDS011;12954;50.688;10.908;2022-12-20T12:32:41;4.00;;;2.90;;
24891;SDS011;12954;50.688;10.908;2022-12-20T12:35:20;5.85;;;3.90;;
24891;SDS011;12954;50.688;10.908;2022-12-20T12:38:14;4.90;;;3.20;;
24891;SDS011;12954;50.688;10.908;2022-12-20T12:41:02;6.68;;;3.80;;
24891;SDS011;12954;50.688;10.908;2022-12-20T12:43:48;6.47;;;4.63;;
24891;SDS011;12954;50.688;10.908;2022-12-20T12:46:19;5.75;;;3.95;;
24891;SDS011;12954;50.688;10.908;2022-12-20T12:51:26;5.28;;;3.85;;
24891;SDS011;12954;50.688;10.908;2022-12-20T12:54:15;7.10;;;4.93;;
24891;SDS011;12954;50.688;10.908;2022-12-20T12:56:46;5.63;;;4.18;;
24891;SDS011;12954;50.688;10.908;2022-12-20T13:02:22;7.70;;;4.77;;
24891;SDS011;12954;50.688;10.908;2022-12-20T13:04:54;5.10;;;3.65;;
24891;SDS011;12954;50.688;10.908;2022-12-20T13:07:27;6.43;;;4.68;;
24891;SDS011;12954;50.688;10.908;2022-12-20T13:13:20;7.65;;;5.65;;
24891;SDS011;12954;50.688;10.908;2022-12-20T13:19:33;7.28;;;5.45;;
24891;SDS011;12954;50.688;10.908;2022-12-20T13:22:12;9.48;;;5.80;;
24891;SDS011;12954;50.688;10.908;2022-12-20T13:24:51;7.72;;;5.60;;
24891;SDS011;12954;50.688;10.908;2022-12-20T13:27:26;9.30;;;6.05;;
24891;SDS011;12954;50.688;10.908;2022-12-20T13:30:00;6.50;;;4.70;;
24891;SDS011;12954;50.688;10.908;2022-12-20T13:33:15;6.57;;;5.13;;
24891;SDS011;12954;50.688;10.908;2022-12-20T13:36:01;5.88;;;4.20;;
24891;SDS011;12954;50.688;10.908;2022-12-20T13:38:54;5.97;;;3.95;;
24891;SDS011;12954;50.688;10.908;2022-12-20T13:44:07;6.50;;;3.30;;
24891;SDS011;12954;50.688;10.908;2022-12-20T13:46:46;6.00;;;4.00;;
24891;SDS011;12954;50.688;10.908;2022-12-20T13:49:21;4.85;;;3.25;;
24891;SDS011;12954;50.688;10.908;2022-12-20T13:52:11;6.03;;;3.95;;
24891;SDS011;12954;50.688;10.908;2022-12-20T13:54:49;5.53;;;3.75;;
24891;SDS011;12954;50.688;10.908;2022-12-20T13:57:23;3.85;;;3.22;;
24891;SDS011;12954;50.688;10.908;2022-12-20T13:59:55;3.92;;;2.60;;
24891;SDS011;12954;50.688;10.908;2022-12-20T14:02:33;5.55;;;3.40;;
24891;SDS011;12954;50.688;10.908;2022-12-20T14:05:13;6.97;;;3.53;;
24891;SDS011;12954;50.688;10.908;2022-12-20T14:07:45;4.97;;;3.67;;
24891;SDS011;12954;50.688;10.908;2022-12-20T14:10:19;4.07;;;3.20;;
24891;SDS011;12954;50.688;10.908;2022-12-20T14:12:51;5.32;;;2.80;;
24891;SDS011;12954;50.688;10.908;2022-12-20T14:15:21;4.38;;;3.08;;
24891;SDS011;12954;50.688;10.908;2022-12-20T14:17:51;4.57;;;3.17;;
24891;SDS011;12954;50.688;10.908;2022-12-20T14:20:21;5.97;;;3.80;;
24891;SDS011;12954;50.688;10.908;2022-12-20T14:22:54;7.78;;;4.70;;
24891;SDS011;12954;50.688;10.908;2022-12-20T14:25:33;5.60;;;3.90;;
24891;SDS011;12954;50.688;10.908;2022-12-20T14:30:52;8.45;;;4.57;;
24891;SDS011;12954;50.688;10.908;2022-12-20T14:33:22;7.25;;;4.82;;
24891;SDS011;12954;50.688;10.908;2022-12-20T14:35:56;6.25;;;4.68;;
24891;SDS011;12954;50.688;10.908;2022-12-20T14:38:28;7.43;;;5.40;;
24891;SDS011;12954;50.688;10.908;2022-12-20T14:40:57;7.50;;;5.25;;
24891;SDS011;12954;50.688;10.908;2022-12-20T14:43:27;6.65;;;4.53;;
24891;SDS011;12954;50.688;10.908;2022-12-20T14:46:14;6.38;;;4.78;;
24891;SDS011;12954;50.688;10.908;2022-12-20T14:48:45;6.70;;;4.93;;
24891;SDS011;12954;50.688;10.908;2022-12-20T14:51:18;8.32;;;5.97;;
24891;SDS011;12954;50.688;10.908;2022-12-20T14:53:48;8.48;;;5.13;;
24891;SDS011;12954;50.688;10.908;2022-12-20T14:56:19;8.48;;;6.32;;
24891;SDS011;12954;50.688;10.908;2022-12-20T14:59:02;9.18;;;6.28;;
24891;SDS011;12954;50.688;10.908;2022-12-20T15:01:39;9.68;;;5.93;;
24891;SDS011;12954;50.688;10.908;2022-12-20T15:04:20;8.32;;;6.10;;
24891;SDS011;12954;50.688;10.908;2022-12-20T15:06:50;9.98;;;7.47;;
24891;SDS011;12954;50.688;10.908;2022-12-20T15:09:19;8.52;;;5.85;;
24891;SDS011;12954;50.688;10.908;2022-12-20T15:11:48;9.75;;;6.22;;
24891;SDS011;12954;50.688;10.908;2022-12-20T15:14:24;9.90;;;5.88;;
24891;SDS011;12954;50.688;10.908;2022-12-20T15:17:02;8.73;;;6.10;;
24891;SDS011;12954;50.688;10.908;2022-12-20T15:19:35;7.88;;;4.72;;
24891;SDS011;12954;50.688;10.908;2022-12-20T15:22:09;7.45;;;5.03;;
24891;SDS011;12954;50.688;10.908;2022-12-20T15:24:42;7.35;;;4.90;;
24891;SDS011;12954;50.688;10.908;2022-12-20T15:27:11;5.43;;;4.38;;